Terminal Aerodrome Forecast
Issued by NWS Nashville, TN

Home | Current Version | Previous Version | Text Only | Print | Product List | Glossary On
Versions: 1 2 3 4 5 6 7 8 9 10 11 12 13 14 15 16 17 18 19 20 21 22 23 24 25 26 27 28 29 30 31 32 33 34 35 36
000
FTUS44 KOHX 041800 AAA
TAFBNA
TAF AMD
KBNA 041802Z 0418/0518 36010KT 6SM -RA BR OVC007
     FM050000 35012G22KT 2SM FZRAPL OVC007
     FM050200 36013G23KT 2SM FZRAPLSN OVC007
     FM050400 36013G20KT 2SM -SNPL OVC005
     FM051200 36013G20KT 2SM -SN OVC007
     FM051500 35012G18KT 4SM -SN OVC015=

USA.gov is the U.S. government's official web portal to all federal, state and local government web resources and services.